Omaha, Texas
Current Conditions -  °F | °C
As of 7:35 PM on Wednesday 22 Oct 2014 (Local Time) from KOSA Reporting Station
Clear Clear  
Wind Chill: 67°   Ceiling: Unl
Heat Index: 67°   Visibility: 10mi
Dew Point: 53°   Wind: 3mph
Humidity: 61%   Direction: 50°NE
Pressure: 30.14"   Gusts: NA
Location:  33.18°N, 94.74°W
Report Text: KOSA 230035Z AUTO 05003KT 10SM CLR 19/12 A3014 RMK AO1 T01930115
Loading
Personal Weather Stations






























Interactive Weather Map
Tropical Storm Tracking
New forecast layout! Learn more

10-Day Weather Forecast

Advertisements
Track Severe Weather on mobile